Time;durP1;ratioP1;P1;durP2;ratioP2;P2;SDS_P1;SDS_P2;PMS_P1;PMS_P2;Temp;Humidity;BMP_temperature;BMP_pressure;BME280_temperature;BME280_humidity;BME280_pressure;Samples;Min_cycle;Max_cycle;Signal;HPM_P1;HPM_P2
2022/07/06 00:02:07;;;;;;;;;;;;;;;32.11;24.90;101833.06;4414190;32;20003;-67
2022/07/06 00:04:33;;;;;;;;;;;;;;;32.00;25.02;101820.91;4411198;32;20050;-67
2022/07/06 00:06:58;;;;;;;;;;;;;;;31.93;25.17;101828.19;4415070;32;19996;-67
2022/07/06 00:09:24;;;;;;;;;;;;;;;31.93;25.30;101827.41;4412894;32;19962;-67
2022/07/06 00:11:49;;;;;;;;;;;;;;;32.04;25.03;101819.22;4416252;32;19953;-67
2022/07/06 00:14:15;;;;;;;;;;;;;;;32.22;24.90;101815.34;4413501;32;19993;-67
2022/07/06 00:16:40;;;;;;;;;;;;;;;32.16;24.82;101820.53;4413436;32;19969;-67
2022/07/06 00:19:05;;;;;;;;;;;;;;;32.09;24.92;101823.34;4415647;32;19949;-67
2022/07/06 00:21:31;;;;;;;;;;;;;;;32.27;24.66;101813.63;4413624;32;20332;-67
2022/07/06 00:23:57;;;;;;;;;;;;;;;32.46;24.46;101811.38;4412948;32;19958;-67
2022/07/06 00:26:22;;;;;;;;;;;;;;;32.22;24.71;101820.37;4416966;32;19985;-67
2022/07/06 00:28:48;;;;;;;;;;;;;;;32.36;24.55;101816.09;4415513;32;19985;-67
2022/07/06 00:31:13;;;;;;;;;;;;;;;32.19;24.85;101812.78;4415673;32;19997;-67
2022/07/06 00:33:39;;;;;;;;;;;;;;;32.24;24.85;101812.63;4414463;32;19961;-67
2022/07/06 00:36:05;;;;;;;;;;;;;;;32.32;24.77;101818.56;4414792;32;19990;-67
2022/07/06 00:38:31;;;;;;;;;;;;;;;32.32;24.94;101804.78;4414489;32;19961;-67
2022/07/06 00:40:57;;;;;;;;;;;;;;;32.42;24.81;101805.09;4398627;32;19968;-67
2022/07/06 00:43:23;;;;;;;;;;;;;;;32.34;24.94;101805.00;4413893;32;20037;-67
2022/07/06 00:45:49;;;;;;;;;;;;;;;32.37;24.99;101803.09;4399785;32;20369;-67
2022/07/06 00:48:14;;;;;;;;;;;;;;;32.36;25.07;101799.41;4414233;32;19985;-67
2022/07/06 00:50:40;;;;;;;;;;;;;;;32.36;25.29;101790.66;4419221;32;20382;-67
2022/07/06 00:53:07;;;;;;;;;;;;;;;32.32;25.52;101787.28;4419671;32;20001;-67
2022/07/06 00:55:35;;;;;;;;;;;;;;;32.44;25.50;101794.44;4415341;32;20001;-67
2022/07/06 00:58:02;;;;;;;;;;;;;;;32.37;25.57;101785.63;4416714;32;20346;-67
2022/07/06 01:00:28;;;;;;;;;;;;;;;32.21;25.80;101801.34;4414615;32;20000;-67
2022/07/06 01:02:54;;;;;;;;;;;;;;;32.30;25.78;101798.72;4419896;32;20042;-67
2022/07/06 01:05:20;;;;;;;;;;;;;;;32.01;26.27;101788.31;4416205;32;19988;-67
2022/07/06 01:07:47;;;;;;;;;;;;;;;32.05;26.61;101785.03;4418681;32;20390;-67
2022/07/06 01:10:14;;;;;;;;;;;;;;;31.89;27.43;101792.03;4417349;32;19999;-67
2022/07/06 01:12:40;;;;;;;;;;;;;;;31.49;28.31;101794.19;4414342;32;19997;-67
2022/07/06 01:15:09;;;;;;;;;;;;;;;31.50;28.35;101783.34;4414278;32;20923;-67
2022/07/06 01:17:35;;;;;;;;;;;;;;;31.92;27.60;101788.78;4417096;32;20569;-67
2022/07/06 01:20:16;;;;;;;;;;;;;;;32.08;27.72;101798.47;4401765;32;20016;-67
2022/07/06 01:22:42;;;;;;;;;;;;;;;32.28;27.35;101807.25;4418738;32;20408;-67
2022/07/06 01:25:08;;;;;;;;;;;;;;;32.24;27.18;101803.13;4416980;32;20028;-67
2022/07/06 01:27:37;;;;;;;;;;;;;;;32.32;26.92;101798.94;4414634;32;19957;-67
2022/07/06 01:30:04;;;;;;;;;;;;;;;32.26;27.09;101809.16;4415671;32;19997;-67
2022/07/06 01:32:29;;;;;;;;;;;;;;;32.48;26.88;101800.69;4417182;32;20032;-67
2022/07/06 01:34:55;;;;;;;;;;;;;;;32.67;26.98;101804.19;4414632;32;20595;-67
2022/07/06 01:37:20;;;;;;;;;;;;;;;32.55;27.08;101793.37;4417078;32;19961;-67
2022/07/06 01:39:46;;;;;;;;;;;;;;;32.25;27.61;101782.19;4416021;32;20034;-67
2022/07/06 01:42:11;;;;;;;;;;;;;;;32.37;27.35;101780.56;4417914;32;20304;-68
2022/07/06 01:44:36;;;;;;;;;;;;;;;32.15;27.71;101774.50;4415846;32;19968;-68
2022/07/06 01:47:02;;;;;;;;;;;;;;;32.19;27.71;101763.25;4417658;32;20028;-67
2022/07/06 01:49:27;;;;;;;;;;;;;;;32.28;28.04;101772.28;4413840;32;20001;-67
2022/07/06 01:51:53;;;;;;;;;;;;;;;32.72;27.11;101775.44;4412827;32;20198;-67
2022/07/06 01:54:18;;;;;;;;;;;;;;;32.77;27.19;101763.66;4415963;32;19991;-67
2022/07/06 01:56:44;;;;;;;;;;;;;;;32.77;27.16;101760.72;4402082;32;19961;-67
2022/07/06 01:59:09;;;;;;;;;;;;;;;32.75;27.22;101765.56;4414919;32;19981;-67
2022/07/06 02:01:35;;;;;;;;;;;;;;;32.82;27.16;101756.09;4414932;32;20524;-67
2022/07/06 02:04:01;;;;;;;;;;;;;;;32.91;27.30;101765.13;4413180;32;19996;-67
2022/07/06 02:06:26;;;;;;;;;;;;;;;32.87;27.47;101761.81;4416804;32;19962;-67
2022/07/06 02:08:53;;;;;;;;;;;;;;;32.65;28.03;101762.37;4412557;32;20022;-67
2022/07/06 02:11:19;;;;;;;;;;;;;;;32.13;29.03;101751.75;4416438;32;20391;-67
2022/07/06 02:13:45;;;;;;;;;;;;;;;32.54;28.42;101754.72;4415600;32;19992;-67
2022/07/06 02:16:10;;;;;;;;;;;;;;;32.65;28.40;101733.22;4414296;32;19996;-67
2022/07/06 02:18:36;;;;;;;;;;;;;;;32.57;28.55;101724.41;4414912;32;19949;-67
2022/07/06 02:21:03;;;;;;;;;;;;;;;32.49;28.73;101714.06;4413099;32;21129;-67
2022/07/06 02:23:28;;;;;;;;;;;;;;;32.40;28.86;101703.66;4415201;32;19961;-67
2022/07/06 02:25:54;;;;;;;;;;;;;;;32.51;28.77;101708.41;4414135;32;20276;-67
2022/07/06 02:28:19;;;;;;;;;;;;;;;32.45;28.86;101693.22;4417482;32;20290;-67
2022/07/06 02:30:45;;;;;;;;;;;;;;;30.97;31.30;101701.09;4413405;32;19966;-67
2022/07/06 02:33:10;;;;;;;;;;;;;;;31.96;29.70;101706.88;4415289;32;20112;-68
2022/07/06 02:35:37;;;;;;;;;;;;;;;32.20;29.60;101706.56;4416403;32;20013;-67
2022/07/06 02:38:02;;;;;;;;;;;;;;;32.27;29.36;101706.62;4416664;32;20015;-67
2022/07/06 02:40:28;;;;;;;;;;;;;;;32.19;29.50;101697.06;4412017;32;19993;-67
2022/07/06 02:42:54;;;;;;;;;;;;;;;32.05;29.66;101691.84;4412353;32;19964;-67
2022/07/06 02:45:19;;;;;;;;;;;;;;;32.04;29.87;101699.00;4418006;32;19965;-68
2022/07/06 02:47:44;;;;;;;;;;;;;;;31.91;29.93;101693.25;4412316;32;20012;-67
2022/07/06 02:50:10;;;;;;;;;;;;;;;31.85;30.17;101698.44;4412352;32;19968;-67
2022/07/06 02:52:35;;;;;;;;;;;;;;;32.14;29.84;101706.69;4414874;32;20018;-67
2022/07/06 02:55:01;;;;;;;;;;;;;;;32.39;29.62;101707.94;4411430;32;19957;-67
2022/07/06 02:57:26;;;;;;;;;;;;;;;32.44;29.31;101704.09;4412258;32;19987;-66
2022/07/06 02:59:52;;;;;;;;;;;;;;;32.79;29.14;101696.78;4414086;32;20040;-67
2022/07/06 03:02:17;;;;;;;;;;;;;;;32.79;29.16;101702.62;4414054;32;19972;-67
2022/07/06 03:04:43;;;;;;;;;;;;;;;32.94;28.94;101708.59;4413097;32;20015;-67
2022/07/06 03:07:08;;;;;;;;;;;;;;;32.64;29.57;101700.38;4414388;32;19953;-67
2022/07/06 03:09:34;;;;;;;;;;;;;;;32.65;29.43;101716.50;4414361;32;20425;-67
2022/07/06 03:11:59;;;;;;;;;;;;;;;32.93;29.08;101717.91;4414984;32;20401;-67
2022/07/06 03:14:25;;;;;;;;;;;;;;;32.99;28.97;101716.41;4416485;32;19979;-67
2022/07/06 03:16:50;;;;;;;;;;;;;;;32.90;29.19;101719.84;4413578;32;20001;-67
2022/07/06 03:19:16;;;;;;;;;;;;;;;32.22;30.29;101722.13;4413806;32;19989;-67
2022/07/06 03:21:41;;;;;;;;;;;;;;;32.34;30.38;101726.34;4414112;32;20391;-67
2022/07/06 03:24:07;;;;;;;;;;;;;;;31.83;31.29;101722.28;4416252;32;19997;-67
2022/07/06 03:26:32;;;;;;;;;;;;;;;31.64;31.39;101730.38;4412421;32;20004;-67
2022/07/06 03:28:58;;;;;;;;;;;;;;;32.34;30.78;101723.41;4413828;32;20018;-67
2022/07/06 03:31:23;;;;;;;;;;;;;;;32.28;30.98;101716.16;4413905;32;19997;-67
2022/07/06 03:33:49;;;;;;;;;;;;;;;32.23;31.32;101714.94;4412571;32;20263;-67
2022/07/06 03:36:15;;;;;;;;;;;;;;;32.05;31.49;101712.22;4413731;32;19961;-67
2022/07/06 03:38:40;;;;;;;;;;;;;;;31.82;31.41;101717.81;4413970;32;20540;-67
2022/07/06 03:41:06;;;;;;;;;;;;;;;31.20;32.87;101713.84;4412438;32;20013;-66
2022/07/06 03:43:32;;;;;;;;;;;;;;;31.05;33.47;101712.84;4409605;32;20028;-66
2022/07/06 03:45:58;;;;;;;;;;;;;;;31.00;33.60;101723.25;4414341;32;20020;-66
2022/07/06 03:48:23;;;;;;;;;;;;;;;31.07;33.41;101710.19;4411310;32;19969;-66
2022/07/06 03:50:49;;;;;;;;;;;;;;;30.89;33.93;101699.44;4415023;32;20770;-66
2022/07/06 03:53:14;;;;;;;;;;;;;;;31.07;33.72;101710.94;4414733;32;19959;-66
2022/07/06 03:55:40;;;;;;;;;;;;;;;30.81;34.06;101714.59;4414504;32;20001;-68
2022/07/06 03:58:06;;;;;;;;;;;;;;;31.20;33.38;101713.84;4412959;32;20000;-67
2022/07/06 04:00:34;;;;;;;;;;;;;;;31.03;33.60;101712.63;4414203;32;19961;-67
2022/07/06 04:03:00;;;;;;;;;;;;;;;30.64;34.22;101722.84;4415247;32;19969;-66
2022/07/06 04:05:31;;;;;;;;;;;;;;;30.71;34.21;101715.59;4414661;32;20004;-66
2022/07/06 04:08:00;;;;;;;;;;;;;;;30.70;34.27;101706.09;4414503;32;20000;-66
2022/07/06 04:10:27;;;;;;;;;;;;;;;31.37;33.43;101714.31;4414769;32;20034;-66
2022/07/06 04:12:53;;;;;;;;;;;;;;;31.04;33.61;101723.69;4413557;32;19989;-66
2022/07/06 04:15:18;;;;;;;;;;;;;;;30.61;34.40;101715.25;4413565;32;20026;-66
2022/07/06 04:17:54;;;;;;;;;;;;;;;31.25;33.53;101724.56;4412265;32;19961;-67
2022/07/06 04:20:20;;;;;;;;;;;;;;;30.65;34.01;101715.69;4415975;32;20017;-67
2022/07/06 04:22:47;;;;;;;;;;;;;;;31.74;32.79;101728.56;4413758;32;19961;-67
2022/07/06 04:25:12;;;;;;;;;;;;;;;31.45;32.89;101721.03;4415090;32;20444;-67
2022/07/06 04:27:38;;;;;;;;;;;;;;;31.55;32.95;101724.22;4418572;32;19961;-67
2022/07/06 04:30:04;;;;;;;;;;;;;;;31.47;32.89;101723.38;4420292;32;19996;-67
2022/07/06 04:32:29;;;;;;;;;;;;;;;31.85;32.42;101724.63;4417326;32;20405;-67
2022/07/06 04:34:55;;;;;;;;;;;;;;;31.92;32.13;101721.81;4416100;32;19989;-67
2022/07/06 04:37:20;;;;;;;;;;;;;;;31.16;33.12;101716.31;4416966;32;20426;-67
2022/07/06 04:39:46;;;;;;;;;;;;;;;32.12;31.79;101718.13;4415649;32;20319;-67
2022/07/06 04:42:11;;;;;;;;;;;;;;;30.86;33.47;101715.84;4416394;32;19997;-67
2022/07/06 04:44:37;;;;;;;;;;;;;;;31.28;33.00;101713.97;4416107;32;20366;-67
2022/07/06 04:47:02;;;;;;;;;;;;;;;31.39;33.02;101716.66;4417314;32;21106;-67
2022/07/06 04:49:28;;;;;;;;;;;;;;;30.88;33.67;101724.00;4419211;32;19997;-66
2022/07/06 04:51:54;;;;;;;;;;;;;;;29.74;35.32;101706.66;4416319;32;20402;-66
2022/07/06 04:54:19;;;;;;;;;;;;;;;30.89;33.51;101703.09;4416514;32;19990;-66
2022/07/06 04:56:46;;;;;;;;;;;;;;;30.67;33.36;101718.81;4415037;32;20346;-67
2022/07/06 04:59:12;;;;;;;;;;;;;;;30.72;33.53;101722.97;4416426;32;20446;-67
2022/07/06 05:01:37;;;;;;;;;;;;;;;30.75;33.41;101719.78;4420664;32;20300;-67
2022/07/06 05:04:03;;;;;;;;;;;;;;;31.05;32.96;101710.72;4414534;32;20012;-67
2022/07/06 05:06:29;;;;;;;;;;;;;;;31.63;31.96;101725.13;4417225;32;20358;-67
2022/07/06 05:08:54;;;;;;;;;;;;;;;31.49;32.20;101718.53;4401317;32;19969;-67
2022/07/06 05:11:21;;;;;;;;;;;;;;;31.95;31.37;101703.19;4415073;32;20008;-67
2022/07/06 05:13:46;;;;;;;;;;;;;;;32.16;31.18;101718.56;4414863;32;19954;-68
2022/07/06 05:16:12;;;;;;;;;;;;;;;31.82;31.59;101714.91;4416346;32;19957;-67
2022/07/06 05:18:38;;;;;;;;;;;;;;;31.57;31.51;101713.59;4417705;32;20011;-67
2022/07/06 05:21:04;;;;;;;;;;;;;;;31.75;31.42;101715.53;4415739;32;19961;-67
2022/07/06 05:23:29;;;;;;;;;;;;;;;31.52;31.62;101720.31;4414031;32;20011;-67
2022/07/06 05:25:55;;;;;;;;;;;;;;;31.35;31.75;101724.94;4416632;32;19998;-67
2022/07/06 05:28:20;;;;;;;;;;;;;;;31.42;31.93;101724.25;4416977;32;20000;-67
2022/07/06 05:30:46;;;;;;;;;;;;;;;31.68;31.60;101732.91;4414851;32;20382;-67
2022/07/06 05:33:11;;;;;;;;;;;;;;;31.82;31.46;101723.66;4415132;32;20001;-67
2022/07/06 05:35:37;;;;;;;;;;;;;;;32.10;30.77;101723.75;4414062;32;19993;-67
2022/07/06 05:38:02;;;;;;;;;;;;;;;32.30;30.59;101728.81;4419479;32;20017;-67
2022/07/06 05:40:28;;;;;;;;;;;;;;;32.41;30.13;101725.66;4413368;32;20858;-67
2022/07/06 05:42:53;;;;;;;;;;;;;;;32.44;30.58;101730.34;4415681;32;20217;-67
2022/07/06 05:45:19;;;;;;;;;;;;;;;31.73;31.40;101735.72;4416683;32;20042;-68
2022/07/06 05:50:30;;;;;;;;;;;;;;;31.51;31.62;101736.22;4415241;32;20008;-67
2022/07/06 05:52:57;;;;;;;;;;;;;;;31.72;31.32;101747.94;4416010;32;20001;-67
2022/07/06 05:55:23;;;;;;;;;;;;;;;31.52;31.47;101737.00;4415293;32;20013;-67
2022/07/06 05:57:50;;;;;;;;;;;;;;;31.32;32.13;101734.78;4413957;32;19986;-67
2022/07/06 06:00:15;;;;;;;;;;;;;;;31.06;32.60;101728.94;4416299;32;20005;-67
2022/07/06 06:02:42;;;;;;;;;;;;;;;31.18;32.19;101709.94;4414130;32;20040;-67
2022/07/06 06:05:09;;;;;;;;;;;;;;;31.67;31.53;101703.06;4418329;32;19954;-67
2022/07/06 06:07:36;;;;;;;;;;;;;;;31.94;30.96;101695.78;4416492;32;20022;-67
2022/07/06 06:10:04;;;;;;;;;;;;;;;31.82;30.64;101693.72;4414688;32;19997;-67
2022/07/06 06:12:29;;;;;;;;;;;;;;;32.24;30.11;101687.37;4417941;32;20001;-67
2022/07/06 06:14:55;;;;;;;;;;;;;;;32.40;29.87;101683.25;4416130;32;20427;-67
2022/07/06 06:17:20;;;;;;;;;;;;;;;33.13;29.00;101685.75;4416141;32;20399;-67
2022/07/06 06:19:46;;;;;;;;;;;;;;;32.63;29.59;101700.94;4413986;32;20342;-67
2022/07/06 06:22:11;;;;;;;;;;;;;;;32.42;29.77;101703.88;4414824;32;20362;-67
2022/07/06 06:24:36;;;;;;;;;;;;;;;32.51;29.83;101723.78;4413799;32;20001;-67
2022/07/06 06:27:03;;;;;;;;;;;;;;;33.51;28.38;101721.00;4413061;32;19974;-68
2022/07/06 06:29:28;;;;;;;;;;;;;;;32.85;29.33;101728.72;4414346;32;19937;-68
2022/07/06 06:31:54;;;;;;;;;;;;;;;32.40;30.06;101732.03;4417942;32;20354;-68
2022/07/06 06:34:20;;;;;;;;;;;;;;;32.33;30.10;101745.16;4414690;32;19968;-68
2022/07/06 06:36:46;;;;;;;;;;;;;;;32.19;30.50;101742.88;4414027;32;20005;-68
2022/07/06 06:39:11;;;;;;;;;;;;;;;32.54;29.80;101730.59;4411251;32;20080;-68
2022/07/06 06:41:37;;;;;;;;;;;;;;;32.46;29.98;101723.94;4405221;32;20336;-68
2022/07/06 06:44:03;;;;;;;;;;;;;;;32.41;29.94;101721.94;4404567;32;20205;-68
2022/07/06 06:46:28;;;;;;;;;;;;;;;32.22;30.21;101724.25;4399718;32;20337;-67
2022/07/06 06:48:54;;;;;;;;;;;;;;;31.82;30.86;101741.13;4405360;32;20562;-68
2022/07/06 06:51:20;;;;;;;;;;;;;;;32.19;30.36;101737.84;4404345;32;19977;-68
2022/07/06 06:53:46;;;;;;;;;;;;;;;32.73;29.54;101739.88;4400393;32;20007;-68
2022/07/06 06:56:11;;;;;;;;;;;;;;;32.23;30.50;101740.38;4405289;32;20036;-68
2022/07/06 06:58:38;;;;;;;;;;;;;;;33.11;29.32;101746.03;4402952;32;20004;-68
2022/07/06 07:01:04;;;;;;;;;;;;;;;33.22;29.05;101746.47;4406101;32;20092;-68
2022/07/06 07:03:30;;;;;;;;;;;;;;;33.49;28.63;101752.88;4405219;32;20639;-68
2022/07/06 07:05:55;;;;;;;;;;;;;;;33.46;28.68;101751.13;4404978;32;20017;-68
2022/07/06 07:08:21;;;;;;;;;;;;;;;33.73;28.18;101747.38;4408265;32;19958;-68
2022/07/06 07:10:46;;;;;;;;;;;;;;;33.09;29.11;101737.06;4405436;32;19997;-68
2022/07/06 07:13:12;;;;;;;;;;;;;;;33.47;28.75;101741.03;4404245;32;20749;-68
2022/07/06 07:15:38;;;;;;;;;;;;;;;33.62;28.47;101730.19;4406320;32;20068;-68
2022/07/06 07:18:04;;;;;;;;;;;;;;;33.88;28.16;101727.00;4403919;32;20051;-69
2022/07/06 07:20:33;;;;;;;;;;;;;;;34.43;27.46;101721.47;4411757;32;20258;-69
2022/07/06 07:22:58;;;;;;;;;;;;;;;33.74;27.79;101718.94;4407585;32;19968;-68
2022/07/06 07:25:24;;;;;;;;;;;;;;;33.66;28.05;101721.06;4407107;32;20453;-68
2022/07/06 07:27:49;;;;;;;;;;;;;;;34.38;27.34;101716.59;4397899;32;19976;-68
2022/07/06 07:30:15;;;;;;;;;;;;;;;34.99;26.47;101718.16;4398469;32;20002;-68
2022/07/06 07:32:40;;;;;;;;;;;;;;;35.13;26.24;101728.28;4403425;32;19989;-67
2022/07/06 07:35:06;;;;;;;;;;;;;;;34.75;26.26;101717.97;4404274;32;20532;-67
2022/07/06 07:37:32;;;;;;;;;;;;;;;34.85;26.30;101725.56;4401922;32;20032;-67
2022/07/06 07:39:57;;;;;;;;;;;;;;;34.39;26.66;101729.88;4392628;32;19992;-67
2022/07/06 07:42:23;;;;;;;;;;;;;;;33.77;27.51;101723.59;4399818;32;20097;-67
2022/07/06 07:44:49;;;;;;;;;;;;;;;33.15;28.32;101731.84;4402596;32;21164;-68
2022/07/06 07:47:14;;;;;;;;;;;;;;;32.96;28.69;101726.31;4399700;32;20400;-69
2022/07/06 07:49:40;;;;;;;;;;;;;;;33.73;27.71;101723.22;4400884;32;20007;-70
2022/07/06 07:52:05;;;;;;;;;;;;;;;33.96;27.16;101729.97;4400679;32;20005;-68
2022/07/06 07:54:31;;;;;;;;;;;;;;;33.93;27.37;101734.03;4401669;32;20004;-70
2022/07/06 07:56:56;;;;;;;;;;;;;;;34.12;26.95;101737.38;4401823;32;20017;-70
2022/07/06 07:59:22;;;;;;;;;;;;;;;34.02;27.14;101743.00;4390643;32;19996;-70
2022/07/06 08:01:47;;;;;;;;;;;;;;;34.08;27.09;101739.91;4400184;32;20798;-68
2022/07/06 08:04:13;;;;;;;;;;;;;;;33.72;27.56;101739.19;4404111;32;20020;-68
2022/07/06 08:06:38;;;;;;;;;;;;;;;33.67;27.75;101732.16;4404495;32;20394;-69
2022/07/06 08:09:07;;;;;;;;;;;;;;;34.06;27.18;101725.91;4405765;32;19977;-68
2022/07/06 08:11:33;;;;;;;;;;;;;;;34.34;26.97;101719.09;4404697;32;20059;-68
2022/07/06 08:13:58;;;;;;;;;;;;;;;34.44;26.81;101734.72;4395057;32;20000;-68
2022/07/06 08:16:23;;;;;;;;;;;;;;;34.32;26.91;101730.59;4403070;32;20374;-68
2022/07/06 08:18:49;;;;;;;;;;;;;;;34.57;26.58;101733.78;4405119;32;20430;-68
2022/07/06 08:21:14;;;;;;;;;;;;;;;35.01;26.04;101729.28;4405119;32;20528;-68
2022/07/06 08:23:40;;;;;;;;;;;;;;;34.79;26.20;101735.91;4404233;32;20001;-69
2022/07/06 08:26:06;;;;;;;;;;;;;;;35.44;25.44;101735.63;4398439;32;19981;-68
2022/07/06 08:28:31;;;;;;;;;;;;;;;35.70;25.24;101737.25;4404767;32;20466;-68
2022/07/06 08:30:57;;;;;;;;;;;;;;;35.03;26.10;101736.09;4404916;32;20007;-69
2022/07/06 08:33:23;;;;;;;;;;;;;;;33.99;27.43;101747.09;4403413;32;20404;-69
2022/07/06 08:35:48;;;;;;;;;;;;;;;33.44;28.04;101728.34;4404743;32;20028;-69
2022/07/06 08:38:14;;;;;;;;;;;;;;;32.94;28.91;101731.16;4404447;32;20050;-70
2022/07/06 08:40:40;;;;;;;;;;;;;;;32.74;29.24;101734.84;4403142;32;19989;-69
2022/07/06 08:43:06;;;;;;;;;;;;;;;32.46;29.66;101747.25;4398684;32;20033;-69
2022/07/06 08:45:33;;;;;;;;;;;;;;;32.30;30.11;101737.53;4402358;32;20022;-68
2022/07/06 08:48:03;;;;;;;;;;;;;;;32.96;29.53;101743.00;4392999;32;20008;-70
2022/07/06 08:50:29;;;;;;;;;;;;;;;32.36;30.00;101743.25;4394271;32;20043;-71
2022/07/06 08:52:54;;;;;;;;;;;;;;;32.18;30.48;101738.41;4400319;32;20005;-72
2022/07/06 08:55:25;;;;;;;;;;;;;;;33.05;29.33;101743.28;4400019;32;19966;-71
2022/07/06 08:57:51;;;;;;;;;;;;;;;32.95;29.11;101729.78;4404208;32;20060;-71
2022/07/06 09:00:17;;;;;;;;;;;;;;;33.24;28.58;101735.03;4401263;32;20674;-71
2022/07/06 09:02:42;;;;;;;;;;;;;;;32.94;28.97;101734.84;4403063;32;19953;-70
2022/07/06 09:05:08;;;;;;;;;;;;;;;32.78;29.13;101736.03;4400235;32;20380;-68
2022/07/06 09:07:34;;;;;;;;;;;;;;;32.94;29.00;101739.91;4403176;32;20016;-68
2022/07/06 09:10:01;;;;;;;;;;;;;;;33.65;27.95;101734.09;4400847;32;20745;-69
2022/07/06 09:12:28;;;;;;;;;;;;;;;34.01;27.72;101738.53;4400177;32;20001;-69
2022/07/06 09:14:56;;;;;;;;;;;;;;;33.79;27.87;101739.22;4403935;32;19966;-69
2022/07/06 09:17:25;;;;;;;;;;;;;;;34.28;26.98;101744.81;4400434;32;20016;-66
2022/07/06 09:19:50;;;;;;;;;;;;;;;34.94;26.24;101744.69;4401828;32;21376;-68
2022/07/06 09:22:32;;;;;;;;;;;;;;;34.63;26.52;101735.13;4399398;32;20020;-68
2022/07/06 09:25:01;;;;;;;;;;;;;;;34.70;26.26;101745.25;4400908;32;20000;-68
2022/07/06 09:27:27;;;;;;;;;;;;;;;33.55;27.76;101739.69;4402625;32;20386;-68
2022/07/06 09:29:53;;;;;;;;;;;;;;;33.71;27.70;101738.41;4401942;32;20037;-67
2022/07/06 09:32:20;;;;;;;;;;;;;;;33.64;27.70;101755.87;4399445;32;20629;-68
2022/07/06 09:34:46;;;;;;;;;;;;;;;32.94;28.51;101766.16;4402983;32;20399;-67
2022/07/06 09:37:12;;;;;;;;;;;;;;;33.62;27.73;101746.94;4401654;32;20027;-68
2022/07/06 09:39:38;;;;;;;;;;;;;;;33.39;28.00;101761.41;4402142;32;20004;-68
2022/07/06 09:42:04;;;;;;;;;;;;;;;33.17;28.34;101753.28;4386235;32;20016;-67
2022/07/06 09:44:31;;;;;;;;;;;;;;;33.78;27.68;101745.63;4399517;32;20144;-68
2022/07/06 09:46:58;;;;;;;;;;;;;;;33.75;27.65;101753.38;4395160;32;19998;-68
2022/07/06 09:49:24;;;;;;;;;;;;;;;33.90;27.46;101752.72;4398028;32;20036;-71
2022/07/06 09:51:51;;;;;;;;;;;;;;;34.46;26.81;101734.94;4400846;32;20031;-70
2022/07/06 09:54:16;;;;;;;;;;;;;;;35.43;25.58;101733.28;4403346;32;20008;-69
2022/07/06 09:56:44;;;;;;;;;;;;;;;35.93;24.63;101729.19;4405389;32;19992;-69
2022/07/06 09:59:13;;;;;;;;;;;;;;;36.18;24.34;101733.72;4401987;32;20138;-70
2022/07/06 10:01:39;;;;;;;;;;;;;;;35.82;24.53;101715.75;4402610;32;20517;-68
2022/07/06 10:04:06;;;;;;;;;;;;;;;35.77;24.52;101728.44;4394441;32;20234;-69
2022/07/06 10:06:32;;;;;;;;;;;;;;;36.91;23.49;101734.34;4399711;32;19993;-69
2022/07/06 10:08:59;;;;;;;;;;;;;;;37.38;22.55;101731.91;4391928;32;20012;-71
2022/07/06 10:11:25;;;;;;;;;;;;;;;37.12;22.89;101746.47;4392896;32;20422;-71
2022/07/06 10:13:54;;;;;;;;;;;;;;;36.32;23.87;101745.94;4404282;32;20881;-70
2022/07/06 10:16:20;;;;;;;;;;;;;;;36.49;23.62;101751.87;4400131;32;20296;-69
2022/07/06 10:18:47;;;;;;;;;;;;;;;37.33;22.75;101743.91;4403839;32;20001;-69
2022/07/06 10:21:13;;;;;;;;;;;;;;;35.66;24.45;101748.63;4400051;32;21008;-70
2022/07/06 10:23:40;;;;;;;;;;;;;;;35.90;24.15;101754.59;4404604;32;20583;-69
2022/07/06 10:26:06;;;;;;;;;;;;;;;34.81;25.41;101757.34;4402620;32;20017;-68
2022/07/06 10:28:32;;;;;;;;;;;;;;;34.63;25.65;101746.81;4404508;32;20005;-69
2022/07/06 10:30:58;;;;;;;;;;;;;;;35.01;25.04;101735.91;4405665;32;20018;-70
2022/07/06 10:33:24;;;;;;;;;;;;;;;34.90;25.11;101742.16;4400677;32;20626;-68
2022/07/06 10:35:50;;;;;;;;;;;;;;;33.59;26.73;101759.78;4401464;32;20011;-69
2022/07/06 10:38:17;;;;;;;;;;;;;;;34.21;26.13;101780.66;4402068;32;19957;-68
2022/07/06 10:41:14;;;;;;;;;;;;;;;34.24;26.05;101762.72;4401752;32;20394;-69
2022/07/06 10:43:32;;;;;;;;;;;;;;;34.78;25.25;101757.75;4389116;32;20016;-69
2022/07/06 10:45:58;;;;;;;;;;;;;;;34.61;25.50;101764.19;4399952;32;20046;-69
2022/07/06 10:48:34;;;;;;;;;;;;;;;35.47;24.33;101762.94;4401188;32;20041;-69
2022/07/06 10:51:01;;;;;;;;;;;;;;;35.09;24.25;101771.78;4400624;32;19997;-69
2022/07/06 10:53:28;;;;;;;;;;;;;;;34.30;24.83;101772.09;4402345;32;20585;-69
2022/07/06 10:55:55;;;;;;;;;;;;;;;35.12;23.95;101735.47;4399659;32;20072;-69
2022/07/06 10:58:40;;;;;;;;;;;;;;;35.75;23.51;101724.56;4402827;32;20395;-69
2022/07/06 11:01:07;;;;;;;;;;;;;;;35.38;23.35;101738.00;4400586;32;20348;-67
2022/07/06 11:08:47;;;;;;;;;;;;;;;36.67;22.00;101771.09;3934428;32;15719492;-68
2022/07/06 11:11:21;;;;;;;;;;;;;;;36.67;22.00;101771.09;4416003;32;20026;-68
2022/07/06 11:13:49;;;;;;;;;;;;;;;34.64;23.88;101760.09;4416581;32;20485;-68
2022/07/06 11:16:15;;;;;;;;;;;;;;;34.12;24.34;101755.69;4411902;32;20418;-68
2022/07/06 11:18:45;;;;;;;;;;;;;;;34.72;23.78;101755.00;4416116;32;20196;-69
2022/07/06 11:21:19;;;;;;;;;;;;;;;35.35;23.07;101767.66;4417322;32;20017;-69
2022/07/06 11:23:46;;;;;;;;;;;;;;;35.58;23.04;101772.06;4420438;32;20015;-68
2022/07/06 11:26:11;;;;;;;;;;;;;;;36.27;22.39;101766.69;4416788;32;20560;-68
2022/07/06 11:28:37;;;;;;;;;;;;;;;36.35;22.21;101750.59;4415474;32;20028;-68
2022/07/06 11:31:02;;;;;;;;;;;;;;;37.42;21.27;101740.25;4417414;32;20375;-68
2022/07/06 11:33:29;;;;;;;;;;;;;;;36.62;22.03;101719.31;4417527;32;20666;-68
2022/07/06 11:36:11;;;;;;;;;;;;;;;35.02;23.78;101719.13;4414319;32;20000;-68
2022/07/06 11:38:36;;;;;;;;;;;;;;;35.92;22.60;101704.94;4416329;32;20688;-69
2022/07/06 11:41:01;;;;;;;;;;;;;;;36.81;21.65;101719.56;4415975;32;19953;-68
2022/07/06 11:43:27;;;;;;;;;;;;;;;35.49;22.95;101717.06;4418052;32;19988;-68
2022/07/06 11:45:52;;;;;;;;;;;;;;;36.28;21.87;101715.50;4416415;32;20232;-69
2022/07/06 11:48:18;;;;;;;;;;;;;;;37.00;21.22;101724.84;4416195;32;20464;-69
2022/07/06 11:50:43;;;;;;;;;;;;;;;36.65;21.21;101723.22;4419340;32;20001;-69
2022/07/06 11:53:10;;;;;;;;;;;;;;;37.29;20.60;101732.59;4416400;32;19969;-69
2022/07/06 11:55:36;;;;;;;;;;;;;;;38.16;19.71;101722.28;4415763;32;20001;-69
2022/07/06 11:58:02;;;;;;;;;;;;;;;37.55;20.43;101720.12;4413799;32;20469;-69
2022/07/06 12:00:27;;;;;;;;;;;;;;;37.87;20.54;101717.00;4415108;32;20004;-68
2022/07/06 12:03:00;;;;;;;;;;;;;;;38.70;19.89;101724.53;4416187;32;19999;-69
2022/07/06 12:05:30;;;;;;;;;;;;;;;38.90;19.65;101723.19;4415378;32;20387;-68
2022/07/06 12:08:05;;;;;;;;;;;;;;;39.25;19.22;101726.66;4413149;32;19972;-69
2022/07/06 12:10:33;;;;;;;;;;;;;;;38.47;20.06;101732.97;4405972;32;20150;-69
2022/07/06 12:13:02;;;;;;;;;;;;;;;38.56;19.96;101723.41;4412785;32;20093;-69
2022/07/06 12:15:32;;;;;;;;;;;;;;;39.36;19.38;101723.88;4416084;32;20022;-69
2022/07/06 12:17:57;;;;;;;;;;;;;;;36.72;21.74;101720.19;4414252;32;20478;-69
2022/07/06 12:20:24;;;;;;;;;;;;;;;36.53;22.20;101736.81;4404103;32;20034;-69
2022/07/06 12:22:49;;;;;;;;;;;;;;;37.32;21.55;101722.56;4402643;32;20004;-69
2022/07/06 12:25:29;;;;;;;;;;;;;;;38.26;20.63;101735.66;4404491;32;19977;-69
2022/07/06 12:27:55;;;;;;;;;;;;;;;37.54;21.31;101727.38;4402955;32;19976;-69
2022/07/06 12:30:21;;;;;;;;;;;;;;;38.23;20.73;101724.31;4402609;32;20535;-69
2022/07/06 12:32:46;;;;;;;;;;;;;;;37.98;20.89;101718.59;4404802;32;20017;-69
2022/07/06 12:35:12;;;;;;;;;;;;;;;39.22;19.68;101705.13;4403092;32;20541;-69
2022/07/06 12:37:38;;;;;;;;;;;;;;;40.10;18.86;101708.16;4404347;32;20025;-69
2022/07/06 12:40:12;;;;;;;;;;;;;;;41.13;17.94;101701.59;4401808;32;19992;-70